Dati Storici

Data ora Umidita' aria (%) Temperatura aria (°C) Rad globale (W/m²) Gonioanemometro (°) Tacoanemometro (m/s) Pioggia (mm)
29-10-2012 17:30 54.8 % 9.839 43.149 301.72 1.63 0
29-10-2012 17:20 54.7 % 9.834 60.679 283.189 1.77 0
29-10-2012 17:10 53.1 % 10.099 67.056 304.59 1.385 0
29-10-2012 17:00 49.9 % 10.555 88.516 278.037 2.361 0
29-10-2012 16:50 46.8 % 11.471 76.359 227.491 0.946 0
29-10-2012 16:40 46.6 % 11.225 163.601 326.214 0.359 0
29-10-2012 16:30 48.4 % 10.85 180.315 2.497 1.865 0
29-10-2012 16:20 47.3 % 11.692 240.026 347.032 2.755 0
29-10-2012 16:10 46.5 % 10.792 272.151 44.828 2.249 0
29-10-2012 16:00 48.1 % 11.004 310.31 1.94 1.164 0
29-10-2012 15:50 48.5 % 11.285 301.642 328.826 2.24 0
29-10-2012 15:40 50.1 % 10.665 318.372 323.337 0.81 0
29-10-2012 15:30 50.4 % 10.599 344.886 276.568 1.992 0
29-10-2012 15:20 49.6 % 10.96 371.661 337.782 1.944 0
29-10-2012 15:10 50.1 % 10.507 400.426 284.192 1.772 0
29-10-2012 15:00 49.4 % 10.836 405.359 254.151 0.83 0
29-10-2012 14:50 49.3 % 10.331 430.828 269.696 1.78 0
29-10-2012 14:40 51.6 % 10.675 441.938 289.609 1.547 0
29-10-2012 14:30 52.8 % 9.893 505.714 268.436 1.482 0
29-10-2012 14:20 53.6 % 9.768 506.579 306.111 2.149 0

I dati sono presentati in modo automatico a scopo informativo. In seguito a verifica i dati possono subire modifiche o essere invalidati e non riportati negli archivi definitivi.